createdAt,value
2016-06-21T00:00:04.110Z,1009.95
2016-06-21T00:01:04.113Z,1009.98
2016-06-21T00:02:04.113Z,1009.97
2016-06-21T00:03:04.121Z,1009.93
2016-06-21T00:04:04.122Z,1009.91
2016-06-21T00:05:04.129Z,1009.92
2016-06-21T00:06:04.135Z,1009.92
2016-06-21T00:07:04.137Z,1009.96
2016-06-21T00:08:04.148Z,1009.95
2016-06-21T00:09:04.148Z,1009.96
2016-06-21T00:10:04.151Z,1009.97
2016-06-21T00:11:04.206Z,1009.99
2016-06-21T00:12:04.166Z,1010
2016-06-21T00:13:04.165Z,1010.01
2016-06-21T00:14:05.151Z,1010.01
2016-06-21T00:15:04.175Z,1010
2016-06-21T00:16:04.182Z,1010.02
2016-06-21T00:17:04.189Z,1010.01
2016-06-21T00:18:04.198Z,1010.03
2016-06-21T00:19:04.196Z,1010.1
2016-06-21T00:20:04.201Z,1010.08
2016-06-21T00:21:04.204Z,1010.12
2016-06-21T00:22:04.215Z,1010.14
2016-06-21T00:23:04.219Z,1010.14
2016-06-21T00:24:04.228Z,1010.17
2016-06-21T00:25:05.030Z,1010.2
2016-06-21T00:26:04.233Z,1010.2
2016-06-21T00:27:04.240Z,1010.2
2016-06-21T00:28:04.244Z,1010.2
2016-06-21T00:29:04.245Z,1010.21
2016-06-21T00:30:04.252Z,1010.21
2016-06-21T00:31:04.255Z,1010.2
2016-06-21T00:32:04.260Z,1010.19
2016-06-21T00:33:04.265Z,1010.23
2016-06-21T00:34:04.276Z,1010.27
2016-06-21T00:35:04.277Z,1010.24
2016-06-21T00:36:04.480Z,1010.28
2016-06-21T00:37:04.283Z,1010.29
2016-06-21T00:38:04.290Z,1010.29
2016-06-21T00:39:04.293Z,1010.34
2016-06-21T00:40:04.305Z,1010.35
2016-06-21T00:41:04.307Z,1010.34
2016-06-21T00:42:04.314Z,1010.38
2016-06-21T00:43:04.313Z,1010.39
2016-06-21T00:44:04.319Z,1010.38
2016-06-21T00:45:04.329Z,1010.4
2016-06-21T00:46:04.333Z,1010.38
2016-06-21T00:47:04.634Z,1010.43
2016-06-21T00:48:04.340Z,1010.39
2016-06-21T00:49:04.346Z,1010.44
2016-06-21T00:50:04.350Z,1010.42
2016-06-21T00:51:04.356Z,1010.46
2016-06-21T00:52:04.359Z,1010.43
2016-06-21T00:53:04.362Z,1010.47
2016-06-21T00:54:04.371Z,1010.42
2016-06-21T00:55:04.374Z,1010.42
2016-06-21T00:56:04.383Z,1010.4
2016-06-21T00:57:04.379Z,1010.41
2016-06-21T00:58:04.387Z,1010.47
2016-06-21T00:59:04.397Z,1010.45
2016-06-21T01:00:04.398Z,1010.4
2016-06-21T01:01:04.403Z,1010.4
2016-06-21T01:02:04.412Z,1010.42
2016-06-21T01:03:04.416Z,1010.4
2016-06-21T01:04:04.420Z,1010.41
2016-06-21T01:05:04.422Z,1010.44
2016-06-21T01:06:04.430Z,1010.36
2016-06-21T01:07:04.433Z,1010.42
2016-06-21T01:08:04.440Z,1010.42
2016-06-21T01:09:04.443Z,1010.41
2016-06-21T01:10:04.448Z,1010.38
2016-06-21T01:11:04.505Z,1010.39
2016-06-21T01:12:04.503Z,1010.38
2016-06-21T01:13:04.460Z,1010.38
2016-06-21T01:14:04.462Z,1010.4
2016-06-21T01:15:04.480Z,1010.39
2016-06-21T01:16:04.490Z,1010.41
2016-06-21T01:17:04.495Z,1010.41
2016-06-21T01:18:04.486Z,1010.44
2016-06-21T01:19:04.493Z,1010.48
2016-06-21T01:20:04.504Z,1010.47
2016-06-21T01:21:04.504Z,1010.49
2016-06-21T01:22:04.506Z,1010.48
2016-06-21T01:23:04.511Z,1010.49
2016-06-21T01:24:04.611Z,1010.46
2016-06-21T01:25:04.520Z,1010.48
2016-06-21T01:26:04.524Z,1010.44
2016-06-21T01:27:04.526Z,1010.47
2016-06-21T01:28:04.535Z,1010.43
2016-06-21T01:29:04.539Z,1010.39
2016-06-21T01:30:04.539Z,1010.42
2016-06-21T01:31:04.553Z,1010.41
2016-06-21T01:32:04.553Z,1010.39
2016-06-21T01:33:04.561Z,1010.38
2016-06-21T01:34:04.559Z,1010.36
2016-06-21T01:35:04.566Z,1010.41
2016-06-21T01:36:04.577Z,1010.37
2016-06-21T01:37:04.572Z,1010.37
2016-06-21T01:38:04.580Z,1010.39
2016-06-21T01:39:04.595Z,1010.37
2016-06-21T01:40:04.589Z,1010.41
2016-06-21T01:41:04.595Z,1010.35
2016-06-21T01:42:04.598Z,1010.4
2016-06-21T01:43:04.606Z,1010.38
2016-06-21T01:44:04.607Z,1010.38
2016-06-21T01:45:04.615Z,1010.41
2016-06-21T01:46:04.619Z,1010.41
2016-06-21T01:47:04.625Z,1010.45
2016-06-21T01:48:04.634Z,1010.45
2016-06-21T01:49:04.634Z,1010.46
2016-06-21T01:50:04.639Z,1010.51
2016-06-21T01:51:05.547Z,1010.47
2016-06-21T01:52:04.660Z,1010.48
2016-06-21T01:53:04.658Z,1010.5
2016-06-21T01:54:04.664Z,1010.47
2016-06-21T01:55:04.664Z,1010.49
2016-06-21T01:56:04.668Z,1010.54
2016-06-21T01:57:04.679Z,1010.55
2016-06-21T01:58:04.683Z,1010.52
2016-06-21T01:59:04.684Z,1010.49
2016-06-21T02:00:04.697Z,1010.52
2016-06-21T02:01:04.695Z,1010.53
2016-06-21T02:02:05.551Z,1010.57
2016-06-21T02:03:04.712Z,1010.56
2016-06-21T02:04:04.711Z,1010.6
2016-06-21T02:05:04.721Z,1010.61
2016-06-21T02:06:04.723Z,1010.59
2016-06-21T02:07:04.729Z,1010.58
2016-06-21T02:08:04.751Z,1010.65
2016-06-21T02:09:04.739Z,1010.62
2016-06-21T02:10:04.742Z,1010.64
2016-06-21T02:11:04.799Z,1010.66
2016-06-21T02:12:04.750Z,1010.63
2016-06-21T02:13:05.555Z,1010.63
2016-06-21T02:14:04.770Z,1010.62
2016-06-21T02:15:04.766Z,1010.64
2016-06-21T02:16:04.774Z,1010.63
2016-06-21T02:17:04.775Z,1010.59
2016-06-21T02:18:04.784Z,1010.59
2016-06-21T02:19:04.791Z,1010.6
2016-06-21T02:20:04.793Z,1010.64
2016-06-21T02:21:04.797Z,1010.65
2016-06-21T02:22:04.799Z,1010.67
2016-06-21T02:23:04.802Z,1010.66
2016-06-21T02:24:05.870Z,1010.69
2016-06-21T02:25:04.816Z,1010.66
2016-06-21T02:26:04.823Z,1010.7
2016-06-21T02:27:04.827Z,1010.73
2016-06-21T02:28:04.829Z,1010.73
2016-06-21T02:29:04.840Z,1010.75
2016-06-21T02:30:04.845Z,1010.74
2016-06-21T02:31:04.850Z,1010.78
2016-06-21T02:32:04.847Z,1010.73
2016-06-21T02:33:04.859Z,1010.73
2016-06-21T02:34:04.861Z,1010.76
2016-06-21T02:35:05.767Z,1010.73
2016-06-21T02:36:04.874Z,1010.73
2016-06-21T02:37:04.879Z,1010.72
2016-06-21T02:38:04.882Z,1010.75
2016-06-21T02:39:04.891Z,1010.78
2016-06-21T02:40:04.890Z,1010.78
2016-06-21T02:41:04.896Z,1010.78
2016-06-21T02:42:04.908Z,1010.78
2016-06-21T02:43:04.911Z,1010.79
2016-06-21T02:44:04.913Z,1010.76
2016-06-21T02:45:04.918Z,1010.73
2016-06-21T02:46:05.623Z,1010.75
2016-06-21T02:47:04.929Z,1010.75
2016-06-21T02:48:04.937Z,1010.75
2016-06-21T02:49:04.943Z,1010.72
2016-06-21T02:50:04.951Z,1010.71
2016-06-21T02:51:04.954Z,1010.72
2016-06-21T02:52:04.951Z,1010.72
2016-06-21T02:53:04.965Z,1010.71
2016-06-21T02:54:04.965Z,1010.75
2016-06-21T02:55:04.967Z,1010.74
2016-06-21T02:56:04.974Z,1010.78
2016-06-21T02:57:05.380Z,1010.72
2016-06-21T02:58:04.985Z,1010.69
2016-06-21T02:59:04.990Z,1010.75
2016-06-21T03:00:04.997Z,1010.75
2016-06-21T03:01:05.003Z,1010.74
2016-06-21T03:02:05.010Z,1010.77
2016-06-21T03:03:05.010Z,1010.69
2016-06-21T03:04:05.014Z,1010.7
2016-06-21T03:05:05.019Z,1010.71
2016-06-21T03:06:05.029Z,1010.68
2016-06-21T03:07:05.032Z,1010.64
2016-06-21T03:08:05.189Z,1010.66
2016-06-21T03:09:05.047Z,1010.64
2016-06-21T03:10:05.060Z,1010.65
2016-06-21T03:11:05.054Z,1010.69
2016-06-21T03:12:05.057Z,1010.67
2016-06-21T03:13:05.067Z,1010.75
2016-06-21T03:14:05.062Z,1010.7
2016-06-21T03:15:05.074Z,1010.74
2016-06-21T03:16:05.077Z,1010.72
2016-06-21T03:17:05.085Z,1010.73
2016-06-21T03:18:05.081Z,1010.73
2016-06-21T03:19:05.102Z,1010.71
2016-06-21T03:20:05.097Z,1010.74
2016-06-21T03:21:05.103Z,1010.67
2016-06-21T03:22:05.106Z,1010.74
2016-06-21T03:23:05.114Z,1010.74
2016-06-21T03:24:05.119Z,1010.73
2016-06-21T03:25:05.122Z,1010.69
2016-06-21T03:26:05.130Z,1010.66
2016-06-21T03:27:05.132Z,1010.73
2016-06-21T03:28:05.138Z,1010.76
2016-06-21T03:29:05.146Z,1010.76
2016-06-21T03:30:05.150Z,1010.81
2016-06-21T03:31:05.156Z,1010.77
2016-06-21T03:32:05.156Z,1010.8
2016-06-21T03:33:05.162Z,1010.83
2016-06-21T03:34:05.173Z,1010.83
2016-06-21T03:35:05.174Z,1010.79
2016-06-21T03:36:05.179Z,1010.8
2016-06-21T03:37:05.189Z,1010.84
2016-06-21T03:38:05.185Z,1010.79
2016-06-21T03:39:05.200Z,1010.81
2016-06-21T03:40:05.214Z,1010.83
2016-06-21T03:41:05.205Z,1010.77
2016-06-21T03:42:05.213Z,1010.78
2016-06-21T03:43:05.228Z,1010.75
2016-06-21T03:44:05.240Z,1010.71
2016-06-21T03:45:05.222Z,1010.73
2016-06-21T03:46:05.225Z,1010.74
2016-06-21T03:47:05.231Z,1010.75
2016-06-21T03:48:05.243Z,1010.72
2016-06-21T03:49:05.241Z,1010.76
2016-06-21T03:50:05.246Z,1010.77
2016-06-21T03:51:05.257Z,1010.74
2016-06-21T03:52:05.259Z,1010.81
2016-06-21T03:53:05.263Z,1010.85
2016-06-21T03:54:06.388Z,1010.81
2016-06-21T03:55:05.277Z,1010.87
2016-06-21T03:56:05.275Z,1010.87
2016-06-21T03:57:05.282Z,1010.83
2016-06-21T03:58:05.288Z,1010.86
2016-06-21T03:59:05.291Z,1010.87
2016-06-21T04:00:05.298Z,1010.89
2016-06-21T04:01:05.308Z,1010.92
2016-06-21T04:02:05.308Z,1010.89
2016-06-21T04:03:05.311Z,1010.92
2016-06-21T04:04:05.320Z,1010.89
2016-06-21T04:05:06.125Z,1010.91
2016-06-21T04:06:05.326Z,1010.89
2016-06-21T04:07:05.330Z,1010.89
2016-06-21T04:08:05.337Z,1010.87
2016-06-21T04:09:05.341Z,1010.85
2016-06-21T04:10:05.350Z,1010.83
2016-06-21T04:11:05.350Z,1010.83
2016-06-21T04:12:05.366Z,1010.86
2016-06-21T04:13:05.361Z,1010.84
2016-06-21T04:14:05.361Z,1010.86
2016-06-21T04:15:05.369Z,1010.91
2016-06-21T04:16:06.126Z,1010.93
2016-06-21T04:17:05.380Z,1010.92
2016-06-21T04:18:05.386Z,1010.93
2016-06-21T04:19:05.392Z,1010.95
2016-06-21T04:20:05.405Z,1011.03
2016-06-21T04:21:05.399Z,1010.99
2016-06-21T04:22:05.409Z,1011.02
2016-06-21T04:23:05.408Z,1011.01
2016-06-21T04:24:05.412Z,1011.01
2016-06-21T04:25:05.417Z,1011.03
2016-06-21T04:26:05.429Z,1010.99
2016-06-21T04:28:05.431Z,1011.04
2016-06-21T04:29:05.439Z,1011.02
2016-06-21T04:30:05.445Z,1011.02
2016-06-21T04:31:05.450Z,1011.03
2016-06-21T04:32:05.459Z,1011.03
2016-06-21T04:33:05.456Z,1011.06
2016-06-21T04:34:05.462Z,1011.02
2016-06-21T04:35:05.472Z,1011.06
2016-06-21T04:36:05.470Z,1011.06
2016-06-21T04:37:05.474Z,1011.02
2016-06-21T04:38:06.085Z,1011.03
2016-06-21T04:39:05.487Z,1011.01
2016-06-21T04:40:05.491Z,1011.04
2016-06-21T04:41:05.499Z,1011.04
2016-06-21T04:42:05.502Z,1011.06
2016-06-21T04:43:05.507Z,1011.08
2016-06-21T04:44:05.514Z,1011.1
2016-06-21T04:45:05.515Z,1011.1
2016-06-21T04:46:05.527Z,1011.13
2016-06-21T04:47:05.526Z,1011.18
2016-06-21T04:48:05.531Z,1011.23
2016-06-21T04:49:05.886Z,1011.25
2016-06-21T04:50:05.543Z,1011.27
2016-06-21T04:51:05.545Z,1011.29
2016-06-21T04:52:05.548Z,1011.28
2016-06-21T04:53:05.561Z,1011.32
2016-06-21T04:54:05.593Z,1011.3
2016-06-21T04:55:05.570Z,1011.27
2016-06-21T04:56:05.577Z,1011.31
2016-06-21T04:57:05.579Z,1011.34
2016-06-21T04:58:05.579Z,1011.28
2016-06-21T04:59:05.583Z,1011.38
2016-06-21T05:00:05.939Z,1011.34
2016-06-21T05:01:05.596Z,1011.35
2016-06-21T05:02:05.599Z,1011.38
2016-06-21T05:03:05.604Z,1011.35
2016-06-21T05:04:05.611Z,1011.41
2016-06-21T05:05:05.611Z,1011.35
2016-06-21T05:06:05.620Z,1011.39
2016-06-21T05:07:05.627Z,1011.39
2016-06-21T05:08:05.626Z,1011.43
2016-06-21T05:09:05.634Z,1011.42
2016-06-21T05:10:05.639Z,1011.44
2016-06-21T05:11:05.645Z,1011.43
2016-06-21T05:12:05.649Z,1011.47
2016-06-21T05:13:05.660Z,1011.42
2016-06-21T05:14:05.707Z,1011.45
2016-06-21T05:15:05.666Z,1011.42
2016-06-21T05:16:05.669Z,1011.44
2016-06-21T05:17:05.674Z,1011.48
2016-06-21T05:18:05.673Z,1011.46
2016-06-21T05:19:05.684Z,1011.54
2016-06-21T05:20:05.691Z,1011.55
2016-06-21T05:21:05.694Z,1011.56
2016-06-21T05:22:05.697Z,1011.53
2016-06-21T05:23:05.703Z,1011.57
2016-06-21T05:24:05.708Z,1011.55
2016-06-21T05:25:05.710Z,1011.58
2016-06-21T05:26:05.716Z,1011.59
2016-06-21T05:27:05.726Z,1011.57
2016-06-21T05:28:05.728Z,1011.59
2016-06-21T05:29:05.738Z,1011.56
2016-06-21T05:30:05.742Z,1011.62
2016-06-21T05:31:05.743Z,1011.6
2016-06-21T05:32:05.750Z,1011.63
2016-06-21T05:33:05.753Z,1011.66
2016-06-21T05:34:05.764Z,1011.65
2016-06-21T05:35:05.766Z,1011.65
2016-06-21T05:36:05.766Z,1011.67
2016-06-21T05:37:05.769Z,1011.7
2016-06-21T05:38:05.781Z,1011.69
2016-06-21T05:39:05.783Z,1011.69
2016-06-21T05:40:05.787Z,1011.71
2016-06-21T05:41:05.799Z,1011.75
2016-06-21T05:42:05.801Z,1011.76
2016-06-21T05:43:05.805Z,1011.79
2016-06-21T05:44:05.807Z,1011.77
2016-06-21T05:45:05.811Z,1011.77
2016-06-21T05:46:05.822Z,1011.79
2016-06-21T05:47:05.828Z,1011.76
2016-06-21T05:48:05.834Z,1011.78
2016-06-21T05:49:05.833Z,1011.79
2016-06-21T05:50:05.839Z,1011.81
2016-06-21T05:51:05.847Z,1011.85
2016-06-21T05:52:05.849Z,1011.84
2016-06-21T05:53:05.851Z,1011.88
2016-06-21T05:54:05.865Z,1011.86
2016-06-21T05:55:05.865Z,1011.92
2016-06-21T05:56:05.874Z,1011.91
2016-06-21T05:57:05.878Z,1011.93
2016-06-21T05:58:05.875Z,1011.89
2016-06-21T05:59:05.879Z,1011.94
2016-06-21T06:00:05.890Z,1012
2016-06-21T06:01:05.891Z,1011.99
2016-06-21T06:02:05.903Z,1011.92
2016-06-21T06:03:05.909Z,1011.99
2016-06-21T06:04:05.907Z,1012.01
2016-06-21T06:05:05.915Z,1011.97
2016-06-21T06:06:05.915Z,1011.99
2016-06-21T06:07:05.926Z,1011.97
2016-06-21T06:08:05.929Z,1011.95
2016-06-21T06:09:05.940Z,1011.98
2016-06-21T06:10:05.941Z,1011.95
2016-06-21T06:11:05.949Z,1011.93
2016-06-21T06:12:05.948Z,1011.98
2016-06-21T06:13:05.954Z,1011.97
2016-06-21T06:14:06.011Z,1012.01
2016-06-21T06:15:05.961Z,1012.05
2016-06-21T06:16:05.966Z,1012.08
2016-06-21T06:17:05.977Z,1012.11
2016-06-21T06:18:05.979Z,1012.13
2016-06-21T06:19:07.081Z,1012.15
2016-06-21T06:20:05.987Z,1012.17
2016-06-21T06:21:05.998Z,1012.18
2016-06-21T06:22:06.001Z,1012.18
2016-06-21T06:23:06.004Z,1012.19
2016-06-21T06:24:06.010Z,1012.19
2016-06-21T06:25:06.017Z,1012.17
2016-06-21T06:26:06.020Z,1012.16
2016-06-21T06:27:06.026Z,1012.14
2016-06-21T06:28:06.026Z,1012.15
2016-06-21T06:29:06.040Z,1012.17
2016-06-21T06:30:06.037Z,1012.14
2016-06-21T06:31:06.043Z,1012.15
2016-06-21T06:32:06.057Z,1012.2
2016-06-21T06:33:06.050Z,1012.23
2016-06-21T06:34:06.059Z,1012.22
2016-06-21T06:35:06.066Z,1012.28
2016-06-21T06:36:06.067Z,1012.23
2016-06-21T06:37:06.077Z,1012.25
2016-06-21T06:38:06.077Z,1012.28
2016-06-21T06:39:06.082Z,1012.3
2016-06-21T06:40:06.086Z,1012.3
2016-06-21T06:41:06.098Z,1012.32
2016-06-21T06:42:06.102Z,1012.31
2016-06-21T06:43:06.106Z,1012.33
2016-06-21T06:44:06.110Z,1012.34
2016-06-21T06:45:06.111Z,1012.31
2016-06-21T06:46:06.117Z,1012.23
2016-06-21T06:47:06.128Z,1012.25
2016-06-21T06:48:06.126Z,1012.21
2016-06-21T06:49:06.137Z,1012.19
2016-06-21T06:50:06.141Z,1012.2
2016-06-21T06:51:06.147Z,1012.22
2016-06-21T06:52:06.147Z,1012.28
2016-06-21T06:53:06.153Z,1012.3
2016-06-21T06:54:06.158Z,1012.33
2016-06-21T06:55:06.166Z,1012.3
2016-06-21T06:56:06.170Z,1012.33
2016-06-21T06:57:06.176Z,1012.28
2016-06-21T06:58:06.185Z,1012.32
2016-06-21T06:59:06.186Z,1012.38
2016-06-21T07:00:06.191Z,1012.36
2016-06-21T07:01:06.197Z,1012.38
2016-06-21T07:02:06.202Z,1012.35
2016-06-21T07:03:06.206Z,1012.37
2016-06-21T07:04:06.213Z,1012.35
2016-06-21T07:05:06.218Z,1012.38
2016-06-21T07:06:06.233Z,1012.41
2016-06-21T07:07:06.226Z,1012.45
2016-06-21T07:08:06.231Z,1012.45
2016-06-21T07:09:06.238Z,1012.46
2016-06-21T07:10:06.244Z,1012.43
2016-06-21T07:11:06.248Z,1012.5
2016-06-21T07:12:06.250Z,1012.53
2016-06-21T07:13:06.254Z,1012.53
2016-06-21T07:14:06.263Z,1012.55
2016-06-21T07:15:06.315Z,1012.64
2016-06-21T07:16:06.273Z,1012.61
2016-06-21T07:17:06.275Z,1012.65
2016-06-21T07:18:06.290Z,1012.61
2016-06-21T07:19:06.288Z,1012.62
2016-06-21T07:20:06.303Z,1012.6
2016-06-21T07:21:06.299Z,1012.65
2016-06-21T07:22:06.311Z,1012.6
2016-06-21T07:23:07.060Z,1012.66
2016-06-21T07:24:06.311Z,1012.67
2016-06-21T07:25:06.323Z,1012.69
2016-06-21T07:26:06.323Z,1012.75
2016-06-21T07:27:06.330Z,1012.76
2016-06-21T07:28:06.338Z,1012.76
2016-06-21T07:29:06.338Z,1012.74
2016-06-21T07:30:06.346Z,1012.75
2016-06-21T07:31:06.349Z,1012.77
2016-06-21T07:32:06.362Z,1012.82
2016-06-21T07:33:06.356Z,1012.81
2016-06-21T07:34:07.267Z,1012.79
2016-06-21T07:35:06.370Z,1012.78
2016-06-21T07:36:06.376Z,1012.78
2016-06-21T07:37:06.383Z,1012.8
2016-06-21T07:38:06.384Z,1012.82
2016-06-21T07:39:06.394Z,1012.83
2016-06-21T07:40:06.393Z,1012.83
2016-06-21T07:41:06.406Z,1012.82
2016-06-21T07:42:06.422Z,1012.88
2016-06-21T07:43:06.416Z,1012.87
2016-06-21T07:44:06.416Z,1012.86
2016-06-21T07:45:07.268Z,1012.86
2016-06-21T07:46:06.424Z,1012.85
2016-06-21T07:47:06.442Z,1012.87
2016-06-21T07:48:06.436Z,1012.84
2016-06-21T07:49:06.438Z,1012.87
2016-06-21T07:50:06.452Z,1012.89
2016-06-21T07:51:06.452Z,1012.88
2016-06-21T07:52:06.458Z,1012.88
2016-06-21T07:53:06.462Z,1012.91
2016-06-21T07:54:06.470Z,1012.97
2016-06-21T07:55:06.473Z,1012.92
2016-06-21T07:56:07.276Z,1012.96
2016-06-21T07:57:06.482Z,1012.91
2016-06-21T07:58:06.488Z,1012.92
2016-06-21T07:59:06.496Z,1012.93
2016-06-21T08:00:06.506Z,1012.87
2016-06-21T08:01:06.510Z,1012.89
2016-06-21T08:02:06.512Z,1012.99
2016-06-21T08:03:06.518Z,1012.93
2016-06-21T08:04:06.522Z,1012.93
2016-06-21T08:05:06.525Z,1012.97
2016-06-21T08:06:06.531Z,1012.96
2016-06-21T08:07:07.490Z,1013.02
2016-06-21T08:08:06.543Z,1012.99
2016-06-21T08:09:06.553Z,1013
2016-06-21T08:10:06.551Z,1013.02
2016-06-21T08:11:06.561Z,1013.03
2016-06-21T08:12:06.561Z,1013.03
2016-06-21T08:13:06.567Z,1012.98
2016-06-21T08:14:06.579Z,1012.99
2016-06-21T08:15:06.579Z,1012.99
2016-06-21T08:16:06.584Z,1012.98
2016-06-21T08:17:06.588Z,1012.97
2016-06-21T08:18:07.703Z,1012.99
2016-06-21T08:19:06.618Z,1012.99
2016-06-21T08:20:06.615Z,1013.01
2016-06-21T08:21:06.618Z,1013.05
2016-06-21T08:22:06.615Z,1013.03
2016-06-21T08:23:06.627Z,1013.04
2016-06-21T08:24:06.883Z,1013.04
2016-06-21T08:25:06.638Z,1013.05
2016-06-21T08:26:06.644Z,1013.06
2016-06-21T08:27:06.645Z,1013.05
2016-06-21T08:28:06.653Z,1013.07
2016-06-21T08:29:07.805Z,1013.04
2016-06-21T08:30:06.669Z,1013.1
2016-06-21T08:31:06.665Z,1013.12
2016-06-21T08:32:06.670Z,1013.09
2016-06-21T08:33:06.671Z,1013.11
2016-06-21T08:34:06.682Z,1013.11
2016-06-21T08:35:06.686Z,1013.12
2016-06-21T08:36:06.705Z,1013.18
2016-06-21T08:37:06.698Z,1013.16
2016-06-21T08:38:06.703Z,1013.17
2016-06-21T08:39:06.703Z,1013.11
2016-06-21T08:40:06.714Z,1013.17
2016-06-21T08:41:06.713Z,1013.17
2016-06-21T08:42:06.723Z,1013.15
2016-06-21T08:43:06.734Z,1013.2
2016-06-21T08:44:06.745Z,1013.17
2016-06-21T08:45:06.735Z,1013.18
2016-06-21T08:46:06.746Z,1013.22
2016-06-21T08:47:06.749Z,1013.17
2016-06-21T08:48:06.756Z,1013.25
2016-06-21T08:49:06.758Z,1013.24
2016-06-21T08:50:06.770Z,1013.19
2016-06-21T08:51:06.768Z,1013.16
2016-06-21T08:52:06.771Z,1013.17
2016-06-21T08:53:06.779Z,1013.17
2016-06-21T08:54:06.780Z,1013.17
2016-06-21T08:55:06.790Z,1013.17
2016-06-21T08:56:06.794Z,1013.19
2016-06-21T08:57:06.802Z,1013.15
2016-06-21T08:58:06.808Z,1013.2
2016-06-21T08:59:06.808Z,1013.15
2016-06-21T09:00:06.820Z,1013.2
2016-06-21T09:01:06.827Z,1013.18
2016-06-21T09:02:06.825Z,1013.21
2016-06-21T09:03:06.845Z,1013.17
2016-06-21T09:04:06.839Z,1013.2
2016-06-21T09:05:06.843Z,1013.22
2016-06-21T09:06:06.847Z,1013.21
2016-06-21T09:07:06.853Z,1013.22
2016-06-21T09:08:06.861Z,1013.18
2016-06-21T09:09:06.863Z,1013.22
2016-06-21T09:10:06.872Z,1013.2
2016-06-21T09:11:06.877Z,1013.21
2016-06-21T09:12:06.884Z,1013.24
2016-06-21T09:13:07.886Z,1013.3
2016-06-21T09:14:06.893Z,1013.25
2016-06-21T09:15:06.904Z,1013.26
2016-06-21T09:16:06.899Z,1013.24
2016-06-21T09:17:06.913Z,1013.29
2016-06-21T09:18:06.915Z,1013.33
2016-06-21T09:19:06.919Z,1013.34
2016-06-21T09:20:06.930Z,1013.38
2016-06-21T09:21:06.930Z,1013.34
2016-06-21T09:22:06.933Z,1013.35
2016-06-21T09:23:06.953Z,1013.37
2016-06-21T09:24:06.952Z,1013.4
2016-06-21T09:25:06.961Z,1013.41
2016-06-21T09:26:06.959Z,1013.43
2016-06-21T09:27:06.965Z,1013.47
2016-06-21T09:28:06.970Z,1013.48
2016-06-21T09:29:06.976Z,1013.47
2016-06-21T09:30:06.979Z,1013.48
2016-06-21T09:31:06.985Z,1013.47
2016-06-21T09:32:06.990Z,1013.46
2016-06-21T09:33:06.995Z,1013.5
2016-06-21T09:34:07.006Z,1013.47
2016-06-21T09:35:08.138Z,1013.5
2016-06-21T09:36:07.012Z,1013.49
2016-06-21T09:37:07.017Z,1013.46
2016-06-21T09:38:07.020Z,1013.47
2016-06-21T09:39:07.034Z,1013.44
2016-06-21T09:40:07.044Z,1013.48
2016-06-21T09:41:07.040Z,1013.46
2016-06-21T09:42:07.047Z,1013.5
2016-06-21T09:43:07.052Z,1013.5
2016-06-21T09:44:07.059Z,1013.51
2016-06-21T09:45:07.061Z,1013.48
2016-06-21T09:46:08.195Z,1013.54
2016-06-21T09:47:07.073Z,1013.55
2016-06-21T09:48:07.081Z,1013.53
2016-06-21T09:49:07.086Z,1013.55
2016-06-21T09:50:07.089Z,1013.54
2016-06-21T09:51:07.096Z,1013.58
2016-06-21T09:52:07.102Z,1013.53
2016-06-21T09:53:07.112Z,1013.53
2016-06-21T09:54:07.120Z,1013.56
2016-06-21T09:55:07.121Z,1013.53
2016-06-21T09:56:07.127Z,1013.56
2016-06-21T09:57:08.138Z,1013.56
2016-06-21T09:58:07.151Z,1013.53
2016-06-21T09:59:07.148Z,1013.52
2016-06-21T10:00:07.170Z,1013.54
2016-06-21T10:01:07.153Z,1013.5
2016-06-21T10:02:07.154Z,1013.5
2016-06-21T10:03:07.166Z,1013.51
2016-06-21T10:04:07.179Z,1013.49
2016-06-21T10:05:07.176Z,1013.52
2016-06-21T10:06:07.183Z,1013.49
2016-06-21T10:07:07.187Z,1013.48
2016-06-21T10:08:08.192Z,1013.47
2016-06-21T10:09:07.198Z,1013.48
2016-06-21T10:10:07.209Z,1013.51
2016-06-21T10:11:07.208Z,1013.53
2016-06-21T10:12:07.217Z,1013.5
2016-06-21T10:13:07.226Z,1013.52
2016-06-21T10:14:07.226Z,1013.55
2016-06-21T10:15:07.227Z,1013.51
2016-06-21T10:16:07.244Z,1013.51
2016-06-21T10:17:07.251Z,1013.57
2016-06-21T10:18:07.255Z,1013.52
2016-06-21T10:19:08.309Z,1013.57
2016-06-21T10:20:07.265Z,1013.54
2016-06-21T10:21:07.267Z,1013.54
2016-06-21T10:22:07.269Z,1013.57
2016-06-21T10:23:07.275Z,1013.61
2016-06-21T10:24:07.284Z,1013.62
2016-06-21T10:25:07.290Z,1013.61
2016-06-21T10:26:07.300Z,1013.61
2016-06-21T10:27:07.300Z,1013.68
2016-06-21T10:28:07.305Z,1013.63
2016-06-21T10:29:07.313Z,1013.64
2016-06-21T10:30:08.437Z,1013.66
2016-06-21T10:31:07.319Z,1013.64
2016-06-21T10:32:07.327Z,1013.6
2016-06-21T10:33:07.335Z,1013.61
2016-06-21T10:34:07.331Z,1013.55
2016-06-21T10:35:07.348Z,1013.59
2016-06-21T10:36:07.342Z,1013.56
2016-06-21T10:37:07.351Z,1013.6
2016-06-21T10:38:07.365Z,1013.58
2016-06-21T10:39:07.364Z,1013.64
2016-06-21T10:40:07.368Z,1013.6
2016-06-21T10:41:07.368Z,1013.63
2016-06-21T10:42:07.372Z,1013.66
2016-06-21T10:43:07.382Z,1013.71
2016-06-21T10:44:07.388Z,1013.68
2016-06-21T10:45:07.390Z,1013.65
2016-06-21T10:46:07.399Z,1013.66
2016-06-21T10:47:07.402Z,1013.64
2016-06-21T10:48:07.410Z,1013.63
2016-06-21T10:49:07.415Z,1013.64
2016-06-21T10:50:07.418Z,1013.69
2016-06-21T10:51:07.439Z,1013.66
2016-06-21T10:52:07.430Z,1013.71
2016-06-21T10:53:07.434Z,1013.7
2016-06-21T10:54:07.443Z,1013.7
2016-06-21T10:55:07.445Z,1013.73
2016-06-21T10:56:07.448Z,1013.73
2016-06-21T10:57:07.464Z,1013.72
2016-06-21T10:58:07.462Z,1013.73
2016-06-21T10:59:07.473Z,1013.7
2016-06-21T11:00:07.479Z,1013.72
2016-06-21T11:01:07.484Z,1013.68
2016-06-21T11:02:07.490Z,1013.71
2016-06-21T11:03:07.502Z,1013.73
2016-06-21T11:04:07.495Z,1013.71
2016-06-21T11:05:07.503Z,1013.77
2016-06-21T11:06:07.513Z,1013.7
2016-06-21T11:07:07.534Z,1013.75
2016-06-21T11:08:07.522Z,1013.71
2016-06-21T11:09:07.521Z,1013.72
2016-06-21T11:10:07.538Z,1013.71
2016-06-21T11:11:07.536Z,1013.72
2016-06-21T11:12:07.544Z,1013.68
2016-06-21T11:13:07.551Z,1013.7
2016-06-21T11:14:07.553Z,1013.74
2016-06-21T11:15:07.564Z,1013.72
2016-06-21T11:16:07.571Z,1013.76
2016-06-21T11:17:07.573Z,1013.72
2016-06-21T11:18:07.584Z,1013.69
2016-06-21T11:19:07.583Z,1013.66
2016-06-21T11:20:07.589Z,1013.66
2016-06-21T11:21:07.604Z,1013.67
2016-06-21T11:22:07.602Z,1013.68
2016-06-21T11:23:07.753Z,1013.69
2016-06-21T11:24:07.612Z,1013.62
2016-06-21T11:25:07.617Z,1013.62
2016-06-21T11:26:07.619Z,1013.68
2016-06-21T11:27:07.631Z,1013.67
2016-06-21T11:28:07.635Z,1013.77
2016-06-21T11:29:07.641Z,1013.71
2016-06-21T11:30:07.658Z,1013.7
2016-06-21T11:31:07.648Z,1013.68
2016-06-21T11:32:07.655Z,1013.68
2016-06-21T11:33:07.663Z,1013.7
2016-06-21T11:34:07.813Z,1013.7
2016-06-21T11:35:07.677Z,1013.63
2016-06-21T11:36:07.681Z,1013.6
2016-06-21T11:37:07.685Z,1013.68
2016-06-21T11:38:07.694Z,1013.64
2016-06-21T11:39:07.703Z,1013.63
2016-06-21T11:40:07.701Z,1013.61
2016-06-21T11:41:07.708Z,1013.6
2016-06-21T11:42:07.746Z,1013.57
2016-06-21T11:43:07.727Z,1013.56
2016-06-21T11:44:07.726Z,1013.55
2016-06-21T11:45:07.984Z,1013.58
2016-06-21T11:46:07.742Z,1013.58
2016-06-21T11:47:07.746Z,1013.58
2016-06-21T11:48:07.749Z,1013.57
2016-06-21T11:49:07.751Z,1013.38
2016-06-21T11:50:07.759Z,1013.57
2016-06-21T11:51:07.773Z,1013.59
2016-06-21T11:52:07.773Z,1013.61
2016-06-21T11:53:07.780Z,1013.56
2016-06-21T11:54:07.791Z,1013.56
2016-06-21T11:55:07.791Z,1013.58
2016-06-21T11:56:08.905Z,1013.57
2016-06-21T11:57:07.804Z,1013.61
2016-06-21T11:58:07.808Z,1013.6
2016-06-21T11:59:07.818Z,1013.66
2016-06-21T12:00:07.822Z,1013.56
2016-06-21T12:01:07.826Z,1013.59
2016-06-21T12:02:07.837Z,1013.61
2016-06-21T12:03:07.832Z,1013.6
2016-06-21T12:04:07.842Z,1013.55
2016-06-21T12:05:07.858Z,1013.55
2016-06-21T12:06:07.852Z,1013.51
2016-06-21T12:07:07.859Z,1013.56
2016-06-21T12:08:07.869Z,1013.55
2016-06-21T12:09:07.874Z,1013.56